sensor_id;sensor_type;location;lat;lon;timestamp;P1;durP1;ratioP1;P2;durP2;ratioP2
47009;SDS011;59230;54.164;-3.124;2023-12-20T00:01:13;44.17;;;5.05;;
47009;SDS011;59230;54.164;-3.124;2023-12-20T00:03:39;41.47;;;5.25;;
47009;SDS011;59230;54.164;-3.124;2023-12-20T00:06:05;36.97;;;5.18;;
47009;SDS011;59230;54.164;-3.124;2023-12-20T00:08:32;37.40;;;5.30;;
47009;SDS011;59230;54.164;-3.124;2023-12-20T00:11:01;29.30;;;4.43;;
47009;SDS011;59230;54.164;-3.124;2023-12-20T00:13:26;32.05;;;5.15;;
47009;SDS011;59230;54.164;-3.124;2023-12-20T00:15:53;39.08;;;6.10;;
47009;SDS011;59230;54.164;-3.124;2023-12-20T00:18:18;41.40;;;5.60;;
47009;SDS011;59230;54.164;-3.124;2023-12-20T00:20:45;32.90;;;5.22;;
47009;SDS011;59230;54.164;-3.124;2023-12-20T00:23:13;37.92;;;5.45;;
47009;SDS011;59230;54.164;-3.124;2023-12-20T00:25:40;39.05;;;5.00;;
47009;SDS011;59230;54.164;-3.124;2023-12-20T00:28:07;32.65;;;4.90;;
47009;SDS011;59230;54.164;-3.124;2023-12-20T00:30:32;32.08;;;5.85;;
47009;SDS011;59230;54.164;-3.124;2023-12-20T00:32:58;36.70;;;6.10;;
47009;SDS011;59230;54.164;-3.124;2023-12-20T00:35:26;43.90;;;6.70;;
47009;SDS011;59230;54.164;-3.124;2023-12-20T00:37:52;43.47;;;6.05;;
47009;SDS011;59230;54.164;-3.124;2023-12-20T00:40:18;46.08;;;5.70;;
47009;SDS011;59230;54.164;-3.124;2023-12-20T00:42:43;38.63;;;7.25;;
47009;SDS011;59230;54.164;-3.124;2023-12-20T00:45:10;37.58;;;5.10;;
47009;SDS011;59230;54.164;-3.124;2023-12-20T00:47:36;47.78;;;6.10;;
47009;SDS011;59230;54.164;-3.124;2023-12-20T00:50:02;48.13;;;5.40;;
47009;SDS011;59230;54.164;-3.124;2023-12-20T00:52:29;43.42;;;6.53;;
47009;SDS011;59230;54.164;-3.124;2023-12-20T00:54:55;57.70;;;6.35;;
47009;SDS011;59230;54.164;-3.124;2023-12-20T00:57:20;50.60;;;6.88;;
47009;SDS011;59230;54.164;-3.124;2023-12-20T00:59:46;40.47;;;5.70;;
47009;SDS011;59230;54.164;-3.124;2023-12-20T01:02:12;38.35;;;5.80;;
47009;SDS011;59230;54.164;-3.124;2023-12-20T01:04:38;33.75;;;5.38;;
47009;SDS011;59230;54.164;-3.124;2023-12-20T01:07:04;30.67;;;5.50;;
47009;SDS011;59230;54.164;-3.124;2023-12-20T01:09:32;38.83;;;5.65;;
47009;SDS011;59230;54.164;-3.124;2023-12-20T01:11:57;40.72;;;7.00;;
47009;SDS011;59230;54.164;-3.124;2023-12-20T01:14:23;53.08;;;6.65;;
47009;SDS011;59230;54.164;-3.124;2023-12-20T01:16:49;54.33;;;5.88;;
47009;SDS011;59230;54.164;-3.124;2023-12-20T01:19:16;44.38;;;6.65;;
47009;SDS011;59230;54.164;-3.124;2023-12-20T01:21:43;50.67;;;7.63;;
47009;SDS011;59230;54.164;-3.124;2023-12-20T01:24:09;47.55;;;5.88;;
47009;SDS011;59230;54.164;-3.124;2023-12-20T01:26:38;34.63;;;5.32;;
47009;SDS011;59230;54.164;-3.124;2023-12-20T01:29:04;53.28;;;7.15;;
47009;SDS011;59230;54.164;-3.124;2023-12-20T01:31:32;45.15;;;7.07;;
47009;SDS011;59230;54.164;-3.124;2023-12-20T01:34:00;46.25;;;6.05;;
47009;SDS011;59230;54.164;-3.124;2023-12-20T01:36:25;42.53;;;6.28;;
47009;SDS011;59230;54.164;-3.124;2023-12-20T01:38:51;41.70;;;6.15;;
47009;SDS011;59230;54.164;-3.124;2023-12-20T01:41:18;43.65;;;6.82;;
47009;SDS011;59230;54.164;-3.124;2023-12-20T01:43:45;53.15;;;6.30;;
47009;SDS011;59230;54.164;-3.124;2023-12-20T01:46:14;47.90;;;6.78;;
47009;SDS011;59230;54.164;-3.124;2023-12-20T01:48:41;51.63;;;6.95;;
47009;SDS011;59230;54.164;-3.124;2023-12-20T01:51:06;49.95;;;6.75;;
47009;SDS011;59230;54.164;-3.124;2023-12-20T01:53:35;53.13;;;5.90;;
47009;SDS011;59230;54.164;-3.124;2023-12-20T01:56:01;51.72;;;6.80;;
47009;SDS011;59230;54.164;-3.124;2023-12-20T01:58:27;45.47;;;5.55;;
47009;SDS011;59230;54.164;-3.124;2023-12-20T02:00:54;36.45;;;6.03;;
47009;SDS011;59230;54.164;-3.124;2023-12-20T02:03:21;49.35;;;5.70;;
47009;SDS011;59230;54.164;-3.124;2023-12-20T02:05:49;50.30;;;6.63;;
47009;SDS011;59230;54.164;-3.124;2023-12-20T02:08:16;36.83;;;5.35;;
47009;SDS011;59230;54.164;-3.124;2023-12-20T02:10:43;38.03;;;4.65;;
47009;SDS011;59230;54.164;-3.124;2023-12-20T02:13:09;30.48;;;4.07;;
47009;SDS011;59230;54.164;-3.124;2023-12-20T02:15:37;49.30;;;6.13;;
47009;SDS011;59230;54.164;-3.124;2023-12-20T02:18:04;38.33;;;5.90;;
47009;SDS011;59230;54.164;-3.124;2023-12-20T02:20:30;47.00;;;6.03;;
47009;SDS011;59230;54.164;-3.124;2023-12-20T02:22:57;28.10;;;4.72;;
47009;SDS011;59230;54.164;-3.124;2023-12-20T02:25:23;34.50;;;4.38;;
47009;SDS011;59230;54.164;-3.124;2023-12-20T02:27:49;35.58;;;5.43;;
47009;SDS011;59230;54.164;-3.124;2023-12-20T02:30:15;34.38;;;4.75;;
47009;SDS011;59230;54.164;-3.124;2023-12-20T02:32:40;28.63;;;4.07;;
47009;SDS011;59230;54.164;-3.124;2023-12-20T02:35:07;33.30;;;4.28;;
47009;SDS011;59230;54.164;-3.124;2023-12-20T02:37:33;26.58;;;4.35;;
47009;SDS011;59230;54.164;-3.124;2023-12-20T02:39:59;38.88;;;5.75;;
47009;SDS011;59230;54.164;-3.124;2023-12-20T02:42:26;28.40;;;4.75;;
47009;SDS011;59230;54.164;-3.124;2023-12-20T02:44:53;26.77;;;4.28;;
47009;SDS011;59230;54.164;-3.124;2023-12-20T02:47:18;30.23;;;4.90;;
47009;SDS011;59230;54.164;-3.124;2023-12-20T02:49:45;32.10;;;4.95;;
47009;SDS011;59230;54.164;-3.124;2023-12-20T02:52:12;34.38;;;4.65;;
47009;SDS011;59230;54.164;-3.124;2023-12-20T02:54:40;31.20;;;4.82;;
47009;SDS011;59230;54.164;-3.124;2023-12-20T02:57:07;56.28;;;5.78;;
47009;SDS011;59230;54.164;-3.124;2023-12-20T02:59:33;37.10;;;4.68;;
47009;SDS011;59230;54.164;-3.124;2023-12-20T03:02:00;40.65;;;5.22;;
47009;SDS011;59230;54.164;-3.124;2023-12-20T03:04:27;40.63;;;5.90;;
47009;SDS011;59230;54.164;-3.124;2023-12-20T03:06:54;35.00;;;4.72;;
47009;SDS011;59230;54.164;-3.124;2023-12-20T03:09:19;42.67;;;5.50;;
47009;SDS011;59230;54.164;-3.124;2023-12-20T03:11:46;31.95;;;4.70;;
47009;SDS011;59230;54.164;-3.124;2023-12-20T03:14:14;32.03;;;4.82;;
47009;SDS011;59230;54.164;-3.124;2023-12-20T03:16:40;28.15;;;4.72;;
47009;SDS011;59230;54.164;-3.124;2023-12-20T03:19:07;33.15;;;4.50;;
47009;SDS011;59230;54.164;-3.124;2023-12-20T03:21:34;37.55;;;5.38;;
47009;SDS011;59230;54.164;-3.124;2023-12-20T03:23:59;29.33;;;4.65;;
47009;SDS011;59230;54.164;-3.124;2023-12-20T03:26:24;31.42;;;4.70;;
47009;SDS011;59230;54.164;-3.124;2023-12-20T03:28:51;37.63;;;4.50;;
47009;SDS011;59230;54.164;-3.124;2023-12-20T03:31:17;32.60;;;4.35;;
47009;SDS011;59230;54.164;-3.124;2023-12-20T03:33:43;36.38;;;5.47;;
47009;SDS011;59230;54.164;-3.124;2023-12-20T03:36:10;32.83;;;5.40;;
47009;SDS011;59230;54.164;-3.124;2023-12-20T03:38:37;39.92;;;5.60;;
47009;SDS011;59230;54.164;-3.124;2023-12-20T03:41:04;27.02;;;4.32;;
47009;SDS011;59230;54.164;-3.124;2023-12-20T03:43:29;34.95;;;4.18;;
47009;SDS011;59230;54.164;-3.124;2023-12-20T03:45:56;29.42;;;3.75;;
47009;SDS011;59230;54.164;-3.124;2023-12-20T03:48:22;34.78;;;4.32;;
47009;SDS011;59230;54.164;-3.124;2023-12-20T03:50:48;40.55;;;4.75;;
47009;SDS011;59230;54.164;-3.124;2023-12-20T03:53:14;30.83;;;4.47;;
47009;SDS011;59230;54.164;-3.124;2023-12-20T03:55:40;31.27;;;4.68;;
47009;SDS011;59230;54.164;-3.124;2023-12-20T03:58:06;27.95;;;3.90;;
47009;SDS011;59230;54.164;-3.124;2023-12-20T04:00:32;26.35;;;4.57;;
47009;SDS011;59230;54.164;-3.124;2023-12-20T04:02:58;20.92;;;3.92;;
47009;SDS011;59230;54.164;-3.124;2023-12-20T04:05:25;32.42;;;4.28;;
47009;SDS011;59230;54.164;-3.124;2023-12-20T04:07:53;29.27;;;3.72;;
47009;SDS011;59230;54.164;-3.124;2023-12-20T04:10:19;36.53;;;4.57;;
47009;SDS011;59230;54.164;-3.124;2023-12-20T04:12:46;25.42;;;4.88;;
47009;SDS011;59230;54.164;-3.124;2023-12-20T04:15:12;29.85;;;4.05;;
47009;SDS011;59230;54.164;-3.124;2023-12-20T04:17:39;34.58;;;4.93;;
47009;SDS011;59230;54.164;-3.124;2023-12-20T04:20:05;26.95;;;3.83;;
47009;SDS011;59230;54.164;-3.124;2023-12-20T04:22:34;43.38;;;4.55;;
47009;SDS011;59230;54.164;-3.124;2023-12-20T04:25:01;45.05;;;5.63;;
47009;SDS011;59230;54.164;-3.124;2023-12-20T04:27:27;54.85;;;4.63;;
47009;SDS011;59230;54.164;-3.124;2023-12-20T04:29:55;39.20;;;4.90;;
47009;SDS011;59230;54.164;-3.124;2023-12-20T04:32:21;35.42;;;5.43;;
47009;SDS011;59230;54.164;-3.124;2023-12-20T04:34:50;37.03;;;4.28;;
47009;SDS011;59230;54.164;-3.124;2023-12-20T04:37:18;41.92;;;5.38;;
47009;SDS011;59230;54.164;-3.124;2023-12-20T04:39:45;54.40;;;6.07;;
47009;SDS011;59230;54.164;-3.124;2023-12-20T04:42:12;48.53;;;5.53;;
47009;SDS011;59230;54.164;-3.124;2023-12-20T04:44:38;43.20;;;6.22;;
47009;SDS011;59230;54.164;-3.124;2023-12-20T04:47:03;45.58;;;5.50;;
47009;SDS011;59230;54.164;-3.124;2023-12-20T04:49:32;42.78;;;5.28;;
47009;SDS011;59230;54.164;-3.124;2023-12-20T04:51:57;44.28;;;6.55;;
47009;SDS011;59230;54.164;-3.124;2023-12-20T04:54:25;42.88;;;5.90;;
47009;SDS011;59230;54.164;-3.124;2023-12-20T04:56:52;46.13;;;6.30;;
47009;SDS011;59230;54.164;-3.124;2023-12-20T04:59:18;39.65;;;5.03;;
47009;SDS011;59230;54.164;-3.124;2023-12-20T05:01:44;30.02;;;5.07;;
47009;SDS011;59230;54.164;-3.124;2023-12-20T05:04:10;49.92;;;5.60;;
47009;SDS011;59230;54.164;-3.124;2023-12-20T05:06:35;37.33;;;5.50;;
47009;SDS011;59230;54.164;-3.124;2023-12-20T05:09:01;48.55;;;5.53;;
47009;SDS011;59230;54.164;-3.124;2023-12-20T05:11:27;29.40;;;4.57;;
47009;SDS011;59230;54.164;-3.124;2023-12-20T05:13:52;33.53;;;4.60;;
47009;SDS011;59230;54.164;-3.124;2023-12-20T05:16:18;29.95;;;4.13;;
47009;SDS011;59230;54.164;-3.124;2023-12-20T05:18:45;35.63;;;4.40;;
47009;SDS011;59230;54.164;-3.124;2023-12-20T05:21:15;32.22;;;4.57;;
47009;SDS011;59230;54.164;-3.124;2023-12-20T05:23:43;40.80;;;4.97;;
47009;SDS011;59230;54.164;-3.124;2023-12-20T05:26:08;53.35;;;6.07;;
47009;SDS011;59230;54.164;-3.124;2023-12-20T05:28:35;43.78;;;6.55;;
47009;SDS011;59230;54.164;-3.124;2023-12-20T05:31:02;42.15;;;6.40;;
47009;SDS011;59230;54.164;-3.124;2023-12-20T05:33:28;42.55;;;4.80;;
47009;SDS011;59230;54.164;-3.124;2023-12-20T05:35:56;44.78;;;5.82;;
47009;SDS011;59230;54.164;-3.124;2023-12-20T05:38:23;34.60;;;5.38;;
47009;SDS011;59230;54.164;-3.124;2023-12-20T05:40:49;35.45;;;4.00;;
47009;SDS011;59230;54.164;-3.124;2023-12-20T05:43:15;39.28;;;4.30;;
47009;SDS011;59230;54.164;-3.124;2023-12-20T05:45:43;39.30;;;4.80;;
47009;SDS011;59230;54.164;-3.124;2023-12-20T05:48:09;43.75;;;5.13;;
47009;SDS011;59230;54.164;-3.124;2023-12-20T05:50:35;37.78;;;5.47;;
47009;SDS011;59230;54.164;-3.124;2023-12-20T05:53:01;41.97;;;4.70;;
47009;SDS011;59230;54.164;-3.124;2023-12-20T05:55:28;39.40;;;5.35;;
47009;SDS011;59230;54.164;-3.124;2023-12-20T05:57:55;32.65;;;3.67;;
47009;SDS011;59230;54.164;-3.124;2023-12-20T06:00:22;34.67;;;4.18;;
47009;SDS011;59230;54.164;-3.124;2023-12-20T06:02:49;48.35;;;4.70;;
47009;SDS011;59230;54.164;-3.124;2023-12-20T06:05:14;50.85;;;5.97;;
47009;SDS011;59230;54.164;-3.124;2023-12-20T06:07:40;59.67;;;5.75;;
47009;SDS011;59230;54.164;-3.124;2023-12-20T06:10:05;48.28;;;6.00;;
47009;SDS011;59230;54.164;-3.124;2023-12-20T06:12:32;41.47;;;5.57;;
47009;SDS011;59230;54.164;-3.124;2023-12-20T06:14:58;46.67;;;4.68;;
47009;SDS011;59230;54.164;-3.124;2023-12-20T06:17:24;31.58;;;4.28;;
47009;SDS011;59230;54.164;-3.124;2023-12-20T06:19:51;32.00;;;4.93;;
47009;SDS011;59230;54.164;-3.124;2023-12-20T06:22:17;39.65;;;4.47;;
47009;SDS011;59230;54.164;-3.124;2023-12-20T06:24:44;38.83;;;4.93;;
47009;SDS011;59230;54.164;-3.124;2023-12-20T06:27:14;35.40;;;5.22;;
47009;SDS011;59230;54.164;-3.124;2023-12-20T06:29:39;42.58;;;5.45;;
47009;SDS011;59230;54.164;-3.124;2023-12-20T06:32:06;32.10;;;5.75;;
47009;SDS011;59230;54.164;-3.124;2023-12-20T06:34:31;44.90;;;6.00;;
47009;SDS011;59230;54.164;-3.124;2023-12-20T06:36:57;34.55;;;4.43;;
47009;SDS011;59230;54.164;-3.124;2023-12-20T06:39:25;35.90;;;4.68;;
47009;SDS011;59230;54.164;-3.124;2023-12-20T06:41:51;33.80;;;4.47;;
47009;SDS011;59230;54.164;-3.124;2023-12-20T06:44:18;42.20;;;5.13;;
47009;SDS011;59230;54.164;-3.124;2023-12-20T06:46:45;41.15;;;4.70;;
47009;SDS011;59230;54.164;-3.124;2023-12-20T06:49:13;42.05;;;5.13;;
47009;SDS011;59230;54.164;-3.124;2023-12-20T06:51:41;42.42;;;4.50;;
47009;SDS011;59230;54.164;-3.124;2023-12-20T06:54:08;27.67;;;4.00;;
47009;SDS011;59230;54.164;-3.124;2023-12-20T06:56:36;32.25;;;5.20;;
47009;SDS011;59230;54.164;-3.124;2023-12-20T06:59:01;36.25;;;4.45;;
47009;SDS011;59230;54.164;-3.124;2023-12-20T07:01:27;38.53;;;5.25;;
47009;SDS011;59230;54.164;-3.124;2023-12-20T07:03:53;36.78;;;4.93;;
47009;SDS011;59230;54.164;-3.124;2023-12-20T07:06:19;38.30;;;4.28;;
47009;SDS011;59230;54.164;-3.124;2023-12-20T07:08:47;42.05;;;4.57;;
47009;SDS011;59230;54.164;-3.124;2023-12-20T07:11:13;40.42;;;4.53;;
47009;SDS011;59230;54.164;-3.124;2023-12-20T07:13:39;28.52;;;4.93;;
47009;SDS011;59230;54.164;-3.124;2023-12-20T07:16:07;29.70;;;4.63;;
47009;SDS011;59230;54.164;-3.124;2023-12-20T07:18:33;32.88;;;4.32;;
47009;SDS011;59230;54.164;-3.124;2023-12-20T07:20:59;31.45;;;3.95;;
47009;SDS011;59230;54.164;-3.124;2023-12-20T07:23:25;42.03;;;6.15;;
47009;SDS011;59230;54.164;-3.124;2023-12-20T07:25:52;39.05;;;5.07;;
47009;SDS011;59230;54.164;-3.124;2023-12-20T07:28:18;32.72;;;4.50;;
47009;SDS011;59230;54.164;-3.124;2023-12-20T07:30:45;43.78;;;4.53;;
47009;SDS011;59230;54.164;-3.124;2023-12-20T07:33:12;35.90;;;4.15;;
47009;SDS011;59230;54.164;-3.124;2023-12-20T07:35:38;35.65;;;3.70;;
47009;SDS011;59230;54.164;-3.124;2023-12-20T07:38:04;40.58;;;4.00;;
47009;SDS011;59230;54.164;-3.124;2023-12-20T07:40:32;33.42;;;4.05;;
47009;SDS011;59230;54.164;-3.124;2023-12-20T07:42:58;28.27;;;4.15;;
47009;SDS011;59230;54.164;-3.124;2023-12-20T07:45:23;33.55;;;4.85;;
47009;SDS011;59230;54.164;-3.124;2023-12-20T07:47:49;35.67;;;3.80;;
47009;SDS011;59230;54.164;-3.124;2023-12-20T07:50:15;31.35;;;4.55;;
47009;SDS011;59230;54.164;-3.124;2023-12-20T07:52:40;36.72;;;4.75;;
47009;SDS011;59230;54.164;-3.124;2023-12-20T07:55:08;40.85;;;4.75;;
47009;SDS011;59230;54.164;-3.124;2023-12-20T07:57:33;33.13;;;4.50;;
47009;SDS011;59230;54.164;-3.124;2023-12-20T08:00:00;35.80;;;4.15;;
47009;SDS011;59230;54.164;-3.124;2023-12-20T08:02:26;42.53;;;5.93;;
47009;SDS011;59230;54.164;-3.124;2023-12-20T08:04:53;29.13;;;4.22;;
47009;SDS011;59230;54.164;-3.124;2023-12-20T08:07:19;32.75;;;4.72;;
47009;SDS011;59230;54.164;-3.124;2023-12-20T08:09:46;37.60;;;5.60;;
47009;SDS011;59230;54.164;-3.124;2023-12-20T08:12:12;31.73;;;4.15;;
47009;SDS011;59230;54.164;-3.124;2023-12-20T08:14:39;28.17;;;3.70;;
47009;SDS011;59230;54.164;-3.124;2023-12-20T08:17:06;25.25;;;4.10;;
47009;SDS011;59230;54.164;-3.124;2023-12-20T08:19:31;24.10;;;3.70;;
47009;SDS011;59230;54.164;-3.124;2023-12-20T08:21:58;29.33;;;3.85;;
47009;SDS011;59230;54.164;-3.124;2023-12-20T08:24:24;39.38;;;5.20;;
47009;SDS011;59230;54.164;-3.124;2023-12-20T08:26:50;28.02;;;3.55;;
47009;SDS011;59230;54.164;-3.124;2023-12-20T08:29:16;35.83;;;4.40;;
47009;SDS011;59230;54.164;-3.124;2023-12-20T08:31:43;26.65;;;4.20;;
47009;SDS011;59230;54.164;-3.124;2023-12-20T08:34:10;36.88;;;4.10;;
47009;SDS011;59230;54.164;-3.124;2023-12-20T08:36:39;29.35;;;4.10;;
47009;SDS011;59230;54.164;-3.124;2023-12-20T08:39:05;42.83;;;4.70;;
47009;SDS011;59230;54.164;-3.124;2023-12-20T08:41:33;34.55;;;4.75;;
47009;SDS011;59230;54.164;-3.124;2023-12-20T08:43:59;30.60;;;3.70;;
47009;SDS011;59230;54.164;-3.124;2023-12-20T08:46:24;24.92;;;3.40;;
47009;SDS011;59230;54.164;-3.124;2023-12-20T08:48:49;28.38;;;3.15;;
47009;SDS011;59230;54.164;-3.124;2023-12-20T08:51:16;30.85;;;3.75;;
47009;SDS011;59230;54.164;-3.124;2023-12-20T08:53:43;30.25;;;3.65;;
47009;SDS011;59230;54.164;-3.124;2023-12-20T08:56:13;41.42;;;4.35;;
47009;SDS011;59230;54.164;-3.124;2023-12-20T08:58:40;40.38;;;5.03;;
47009;SDS011;59230;54.164;-3.124;2023-12-20T09:01:05;31.77;;;3.97;;
47009;SDS011;59230;54.164;-3.124;2023-12-20T09:03:30;37.30;;;4.45;;
47009;SDS011;59230;54.164;-3.124;2023-12-20T09:05:56;42.53;;;4.55;;
47009;SDS011;59230;54.164;-3.124;2023-12-20T09:08:22;44.65;;;4.97;;
47009;SDS011;59230;54.164;-3.124;2023-12-20T09:10:48;38.60;;;5.22;;
47009;SDS011;59230;54.164;-3.124;2023-12-20T09:13:14;42.05;;;4.68;;
47009;SDS011;59230;54.164;-3.124;2023-12-20T09:15:39;44.45;;;4.32;;
47009;SDS011;59230;54.164;-3.124;2023-12-20T09:18:05;44.40;;;5.75;;
47009;SDS011;59230;54.164;-3.124;2023-12-20T09:20:31;56.28;;;5.63;;
47009;SDS011;59230;54.164;-3.124;2023-12-20T09:22:58;32.45;;;4.65;;
47009;SDS011;59230;54.164;-3.124;2023-12-20T09:25:26;27.63;;;3.33;;
47009;SDS011;59230;54.164;-3.124;2023-12-20T09:27:53;40.38;;;4.18;;
47009;SDS011;59230;54.164;-3.124;2023-12-20T09:30:20;24.92;;;3.97;;
47009;SDS011;59230;54.164;-3.124;2023-12-20T09:32:48;32.45;;;5.05;;
47009;SDS011;59230;54.164;-3.124;2023-12-20T09:35:13;39.00;;;4.18;;
47009;SDS011;59230;54.164;-3.124;2023-12-20T09:37:40;43.10;;;4.20;;
47009;SDS011;59230;54.164;-3.124;2023-12-20T09:40:12;34.97;;;3.83;;
47009;SDS011;59230;54.164;-3.124;2023-12-20T09:42:51;31.02;;;3.70;;
47009;SDS011;59230;54.164;-3.124;2023-12-20T09:45:23;45.38;;;5.00;;
47009;SDS011;59230;54.164;-3.124;2023-12-20T09:47:53;33.45;;;3.60;;
47009;SDS011;59230;54.164;-3.124;2023-12-20T09:50:20;36.70;;;4.20;;
47009;SDS011;59230;54.164;-3.124;2023-12-20T09:52:51;34.33;;;3.90;;
47009;SDS011;59230;54.164;-3.124;2023-12-20T09:55:18;31.88;;;4.43;;
47009;SDS011;59230;54.164;-3.124;2023-12-20T09:57:46;36.35;;;4.30;;
47009;SDS011;59230;54.164;-3.124;2023-12-20T10:00:15;37.33;;;4.78;;
47009;SDS011;59230;54.164;-3.124;2023-12-20T10:02:50;31.05;;;4.63;;
47009;SDS011;59230;54.164;-3.124;2023-12-20T10:05:30;33.72;;;4.28;;
47009;SDS011;59230;54.164;-3.124;2023-12-20T10:07:57;23.95;;;2.92;;
47009;SDS011;59230;54.164;-3.124;2023-12-20T10:10:26;33.13;;;3.88;;
47009;SDS011;59230;54.164;-3.124;2023-12-20T10:13:03;23.80;;;3.00;;
47009;SDS011;59230;54.164;-3.124;2023-12-20T10:15:35;30.33;;;3.90;;
47009;SDS011;59230;54.164;-3.124;2023-12-20T10:18:01;35.65;;;4.47;;
47009;SDS011;59230;54.164;-3.124;2023-12-20T10:20:29;42.80;;;4.45;;
47009;SDS011;59230;54.164;-3.124;2023-12-20T10:22:56;42.33;;;4.35;;
47009;SDS011;59230;54.164;-3.124;2023-12-20T10:25:25;38.47;;;4.60;;
47009;SDS011;59230;54.164;-3.124;2023-12-20T10:28:13;40.92;;;4.68;;
47009;SDS011;59230;54.164;-3.124;2023-12-20T10:30:39;31.30;;;3.85;;
47009;SDS011;59230;54.164;-3.124;2023-12-20T10:33:05;45.75;;;4.75;;
47009;SDS011;59230;54.164;-3.124;2023-12-20T10:35:36;37.80;;;4.55;;
47009;SDS011;59230;54.164;-3.124;2023-12-20T10:38:06;44.13;;;4.93;;
47009;SDS011;59230;54.164;-3.124;2023-12-20T10:40:34;43.72;;;5.65;;
47009;SDS011;59230;54.164;-3.124;2023-12-20T10:43:03;44.13;;;5.28;;
47009;SDS011;59230;54.164;-3.124;2023-12-20T10:45:32;56.45;;;5.70;;
47009;SDS011;59230;54.164;-3.124;2023-12-20T10:47:57;49.17;;;5.88;;
47009;SDS011;59230;54.164;-3.124;2023-12-20T10:50:30;45.25;;;5.25;;
47009;SDS011;59230;54.164;-3.124;2023-12-20T10:52:57;51.15;;;6.25;;
47009;SDS011;59230;54.164;-3.124;2023-12-20T10:55:25;45.65;;;5.95;;
47009;SDS011;59230;54.164;-3.124;2023-12-20T10:57:54;41.13;;;6.40;;
47009;SDS011;59230;54.164;-3.124;2023-12-20T11:00:30;54.55;;;7.18;;
47009;SDS011;59230;54.164;-3.124;2023-12-20T11:03:04;63.22;;;6.78;;
47009;SDS011;59230;54.164;-3.124;2023-12-20T11:08:39;63.35;;;7.75;;
47009;SDS011;59230;54.164;-3.124;2023-12-20T11:11:27;65.97;;;7.65;;
47009;SDS011;59230;54.164;-3.124;2023-12-20T11:16:25;60.85;;;8.45;;
47009;SDS011;59230;54.164;-3.124;2023-12-20T11:18:51;55.83;;;7.85;;
47009;SDS011;59230;54.164;-3.124;2023-12-20T11:21:16;53.08;;;6.97;;
47009;SDS011;59230;54.164;-3.124;2023-12-20T11:23:43;60.55;;;7.82;;
47009;SDS011;59230;54.164;-3.124;2023-12-20T11:26:11;50.25;;;7.22;;
47009;SDS011;59230;54.164;-3.124;2023-12-20T11:28:41;50.78;;;6.28;;
47009;SDS011;59230;54.164;-3.124;2023-12-20T11:31:07;54.33;;;6.72;;
47009;SDS011;59230;54.164;-3.124;2023-12-20T11:33:36;68.03;;;9.02;;
47009;SDS011;59230;54.164;-3.124;2023-12-20T11:36:12;62.50;;;7.70;;
47009;SDS011;59230;54.164;-3.124;2023-12-20T11:38:57;69.03;;;9.52;;
47009;SDS011;59230;54.164;-3.124;2023-12-20T11:41:26;57.85;;;7.03;;
47009;SDS011;59230;54.164;-3.124;2023-12-20T11:43:56;60.15;;;6.78;;
47009;SDS011;59230;54.164;-3.124;2023-12-20T11:46:23;63.92;;;7.15;;
47009;SDS011;59230;54.164;-3.124;2023-12-20T11:48:49;67.85;;;6.35;;
47009;SDS011;59230;54.164;-3.124;2023-12-20T11:51:15;40.70;;;6.10;;
47009;SDS011;59230;54.164;-3.124;2023-12-20T11:53:41;49.58;;;6.47;;
47009;SDS011;59230;54.164;-3.124;2023-12-20T11:56:14;54.60;;;7.15;;
47009;SDS011;59230;54.164;-3.124;2023-12-20T11:58:40;56.05;;;7.07;;
47009;SDS011;59230;54.164;-3.124;2023-12-20T12:01:07;66.18;;;7.43;;
47009;SDS011;59230;54.164;-3.124;2023-12-20T12:03:36;58.80;;;7.50;;
47009;SDS011;59230;54.164;-3.124;2023-12-20T12:06:03;56.00;;;6.85;;
47009;SDS011;59230;54.164;-3.124;2023-12-20T12:08:32;66.43;;;6.97;;
47009;SDS011;59230;54.164;-3.124;2023-12-20T12:11:03;60.20;;;6.60;;
47009;SDS011;59230;54.164;-3.124;2023-12-20T12:13:28;68.15;;;7.78;;
47009;SDS011;59230;54.164;-3.124;2023-12-20T12:15:54;61.35;;;6.07;;
47009;SDS011;59230;54.164;-3.124;2023-12-20T12:18:20;72.57;;;7.22;;
47009;SDS011;59230;54.164;-3.124;2023-12-20T12:20:47;53.25;;;6.43;;
47009;SDS011;59230;54.164;-3.124;2023-12-20T12:23:13;55.42;;;6.25;;
47009;SDS011;59230;54.164;-3.124;2023-12-20T12:25:38;63.47;;;7.10;;
47009;SDS011;59230;54.164;-3.124;2023-12-20T12:28:05;62.30;;;7.63;;
47009;SDS011;59230;54.164;-3.124;2023-12-20T12:30:31;48.08;;;6.38;;
47009;SDS011;59230;54.164;-3.124;2023-12-20T12:32:57;63.30;;;6.90;;
47009;SDS011;59230;54.164;-3.124;2023-12-20T12:35:23;50.60;;;5.90;;
47009;SDS011;59230;54.164;-3.124;2023-12-20T12:37:48;52.42;;;6.07;;
47009;SDS011;59230;54.164;-3.124;2023-12-20T12:40:15;42.97;;;6.68;;
47009;SDS011;59230;54.164;-3.124;2023-12-20T12:42:43;75.90;;;7.00;;
47009;SDS011;59230;54.164;-3.124;2023-12-20T12:45:12;57.63;;;6.40;;
47009;SDS011;59230;54.164;-3.124;2023-12-20T12:47:39;61.58;;;6.50;;
47009;SDS011;59230;54.164;-3.124;2023-12-20T12:50:06;61.03;;;6.00;;
47009;SDS011;59230;54.164;-3.124;2023-12-20T12:52:34;53.38;;;6.13;;
47009;SDS011;59230;54.164;-3.124;2023-12-20T12:55:00;56.08;;;6.20;;
47009;SDS011;59230;54.164;-3.124;2023-12-20T12:57:25;63.03;;;7.43;;
47009;SDS011;59230;54.164;-3.124;2023-12-20T12:59:51;68.25;;;7.72;;
47009;SDS011;59230;54.164;-3.124;2023-12-20T13:02:18;53.78;;;7.38;;
47009;SDS011;59230;54.164;-3.124;2023-12-20T13:04:43;60.42;;;6.70;;
47009;SDS011;59230;54.164;-3.124;2023-12-20T13:07:10;50.03;;;6.18;;
47009;SDS011;59230;54.164;-3.124;2023-12-20T13:09:38;57.35;;;5.88;;
47009;SDS011;59230;54.164;-3.124;2023-12-20T13:12:04;55.38;;;7.25;;
47009;SDS011;59230;54.164;-3.124;2023-12-20T13:14:34;62.90;;;6.55;;
47009;SDS011;59230;54.164;-3.124;2023-12-20T13:17:03;61.75;;;6.53;;
47009;SDS011;59230;54.164;-3.124;2023-12-20T13:19:29;61.55;;;6.70;;
47009;SDS011;59230;54.164;-3.124;2023-12-20T13:21:56;50.40;;;6.15;;
47009;SDS011;59230;54.164;-3.124;2023-12-20T13:24:25;52.92;;;6.50;;
47009;SDS011;59230;54.164;-3.124;2023-12-20T13:26:51;57.15;;;7.28;;
47009;SDS011;59230;54.164;-3.124;2023-12-20T13:29:17;70.15;;;7.25;;
47009;SDS011;59230;54.164;-3.124;2023-12-20T13:31:43;59.60;;;7.00;;
47009;SDS011;59230;54.164;-3.124;2023-12-20T13:34:10;57.60;;;6.93;;
47009;SDS011;59230;54.164;-3.124;2023-12-20T13:36:36;69.80;;;7.35;;
47009;SDS011;59230;54.164;-3.124;2023-12-20T13:39:01;81.82;;;7.63;;
47009;SDS011;59230;54.164;-3.124;2023-12-20T13:41:30;72.00;;;6.60;;
47009;SDS011;59230;54.164;-3.124;2023-12-20T13:43:56;74.40;;;7.32;;
47009;SDS011;59230;54.164;-3.124;2023-12-20T13:46:23;71.18;;;7.47;;
47009;SDS011;59230;54.164;-3.124;2023-12-20T13:48:49;71.10;;;7.85;;
47009;SDS011;59230;54.164;-3.124;2023-12-20T13:51:16;72.25;;;7.18;;
47009;SDS011;59230;54.164;-3.124;2023-12-20T13:53:43;69.55;;;7.28;;
47009;SDS011;59230;54.164;-3.124;2023-12-20T13:56:08;83.15;;;9.10;;
47009;SDS011;59230;54.164;-3.124;2023-12-20T13:58:36;60.60;;;7.45;;
47009;SDS011;59230;54.164;-3.124;2023-12-20T14:01:12;65.28;;;7.53;;
47009;SDS011;59230;54.164;-3.124;2023-12-20T14:03:37;65.50;;;7.20;;
47009;SDS011;59230;54.164;-3.124;2023-12-20T14:06:08;57.47;;;6.40;;
47009;SDS011;59230;54.164;-3.124;2023-12-20T14:08:35;50.80;;;6.70;;
47009;SDS011;59230;54.164;-3.124;2023-12-20T14:11:08;61.58;;;7.60;;
47009;SDS011;59230;54.164;-3.124;2023-12-20T14:13:34;69.63;;;7.88;;
47009;SDS011;59230;54.164;-3.124;2023-12-20T14:15:59;98.68;;;9.48;;
47009;SDS011;59230;54.164;-3.124;2023-12-20T14:18:31;77.93;;;7.30;;
47009;SDS011;59230;54.164;-3.124;2023-12-20T14:20:58;74.38;;;8.15;;
47009;SDS011;59230;54.164;-3.124;2023-12-20T14:23:23;68.22;;;7.30;;
47009;SDS011;59230;54.164;-3.124;2023-12-20T14:25:49;71.63;;;8.40;;